Time;durP1;ratioP1;P1;durP2;ratioP2;P2;SDS_P1;SDS_P2;PMS_P1;PMS_P2;Temp;Humidity;BMP_temperature;BMP_pressure;BME280_temperature;BME280_humidity;BME280_pressure;Samples;Min_cycle;Max_cycle;Signal;HPM_P1;HPM_P2
2022/08/16 00:00:19;;;;;;;21.43;13.37;;;17.90;99.90;;;;;;4350558;28;660533;-67
2022/08/16 00:03:06;;;;;;;21.03;12.73;;;17.90;99.90;;;;;;4348093;28;659620;-66
2022/08/16 00:05:53;;;;;;;19.73;12.90;;;18.00;99.90;;;;;;4373074;28;660727;-66
2022/08/16 00:08:40;;;;;;;19.33;12.90;;;18.00;99.90;;;;;;4352330;28;659568;-66
2022/08/16 00:11:27;;;;;;;22.80;12.63;;;18.20;99.90;;;;;;4367983;28;660668;-66
2022/08/16 00:14:30;;;;;;;19.17;13.20;;;18.20;99.90;;;;;;4374917;28;660040;-66
2022/08/16 00:17:17;;;;;;;18.90;11.23;;;18.30;99.90;;;;;;4356290;28;659527;-66
2022/08/16 00:20:07;;;;;;;17.17;11.98;;;18.20;99.90;;;;;;4368002;28;659409;-66
2022/08/16 00:22:54;;;;;;;17.27;10.77;;;18.10;99.90;;;;;;4350020;28;660156;-66
2022/08/16 00:25:41;;;;;;;17.83;10.80;;;18.00;99.90;;;;;;4355027;28;659470;-66
2022/08/16 00:28:29;;;;;;;20.40;11.20;;;18.00;99.90;;;;;;4368585;28;659871;-66
2022/08/16 00:31:17;;;;;;;19.27;11.27;;;17.80;99.90;;;;;;4352201;28;660165;-66
2022/08/16 00:34:04;;;;;;;20.90;11.60;;;17.80;99.90;;;;;;4368575;28;659754;-66
2022/08/16 00:36:51;;;;;;;21.13;11.73;;;17.90;99.90;;;;;;4343925;28;659751;-67
2022/08/16 00:39:38;;;;;;;15.27;10.90;;;17.90;99.90;;;;;;4374875;28;660285;-66
2022/08/16 00:42:27;;;;;;;18.40;11.77;;;17.80;99.90;;;;;;4358118;28;659816;-66
2022/08/16 00:45:20;;;;;;;16.80;10.67;;;17.80;99.90;;;;;;4368251;28;659589;-66
2022/08/16 00:48:10;;;;;;;19.17;11.67;;;17.70;99.90;;;;;;4330317;28;660341;-66
2022/08/16 00:50:57;;;;;;;21.47;11.50;;;17.80;99.90;;;;;;4354720;28;660139;-66
2022/08/16 00:53:45;;;;;;;18.00;11.63;;;17.80;99.90;;;;;;4369077;28;660168;-67
2022/08/16 00:56:33;;;;;;;16.90;11.50;;;17.80;99.90;;;;;;4349566;28;660662;-66
2022/08/16 00:59:22;;;;;;;18.50;11.63;;;17.60;99.90;;;;;;4351696;28;659426;-66
2022/08/16 01:02:10;;;;;;;20.17;11.67;;;17.50;99.90;;;;;;4377243;28;659568;-66
2022/08/16 01:04:58;;;;;;;17.87;12.10;;;17.50;99.90;;;;;;4353006;28;660581;-67
2022/08/16 01:07:45;;;;;;;25.23;12.73;;;17.60;99.90;;;;;;4355827;28;659598;-66
2022/08/16 01:10:32;;;;;;;19.27;11.67;;;17.60;99.90;;;;;;4372785;28;660811;-66
2022/08/16 01:13:22;;;;;;;19.73;12.47;;;17.60;99.90;;;;;;4369150;28;660577;-67
2022/08/16 01:16:11;;;;;;;20.10;12.03;;;17.60;99.90;;;;;;4373596;28;659963;-66
2022/08/16 01:19:00;;;;;;;15.83;12.03;;;17.60;99.90;;;;;;4352829;28;660087;-66
2022/08/16 01:21:52;;;;;;;17.77;11.60;;;17.50;99.90;;;;;;4357184;28;660806;-66
2022/08/16 01:24:42;;;;;;;16.87;11.73;;;17.50;99.90;;;;;;4352901;28;659618;-66
2022/08/16 01:27:30;;;;;;;18.87;11.30;;;17.50;99.90;;;;;;4348450;28;660028;-67
2022/08/16 01:30:19;;;;;;;15.95;11.02;;;17.50;99.90;;;;;;4351942;28;659886;-66
2022/08/16 01:33:06;;;;;;;18.67;11.37;;;17.40;99.90;;;;;;4349689;28;659767;-67
2022/08/16 01:35:55;;;;;;;17.90;10.70;;;17.40;99.90;;;;;;4369571;28;659863;-66
2022/08/16 01:38:43;;;;;;;16.80;11.13;;;17.30;99.90;;;;;;4347150;28;660589;-66
2022/08/16 01:41:32;;;;;;;19.63;10.67;;;17.30;99.90;;;;;;4345315;28;659615;-66
2022/08/16 01:44:19;;;;;;;17.50;11.17;;;17.30;99.90;;;;;;4373725;28;659484;-66
2022/08/16 01:47:06;;;;;;;14.70;10.07;;;17.30;99.90;;;;;;4345679;28;659756;-67
2022/08/16 01:49:53;;;;;;;14.63;11.00;;;17.20;99.90;;;;;;4376867;28;659880;-67
2022/08/16 01:52:40;;;;;;;16.30;10.93;;;17.10;99.90;;;;;;4340566;28;659786;-67
2022/08/16 01:55:28;;;;;;;15.63;10.77;;;17.00;99.90;;;;;;4371770;28;660122;-66
2022/08/16 01:58:16;;;;;;;16.75;11.00;;;17.10;99.90;;;;;;4355023;28;659517;-67
2022/08/16 02:01:06;;;;;;;21.50;12.20;;;17.10;99.90;;;;;;4369787;28;660031;-66
2022/08/16 02:03:53;;;;;;;21.27;12.13;;;17.10;99.90;;;;;;4347085;28;660455;-66
2022/08/16 02:06:40;;;;;;;19.55;11.30;;;17.20;99.90;;;;;;4355533;28;659805;-67
2022/08/16 02:09:27;;;;;;;22.30;11.47;;;17.10;99.90;;;;;;4369877;28;660388;-66
2022/08/16 02:12:16;;;;;;;21.70;13.10;;;17.10;99.90;;;;;;4362865;28;659507;-67
2022/08/16 02:15:06;;;;;;;20.27;12.23;;;17.10;99.90;;;;;;4370236;28;660206;-66
2022/08/16 02:17:56;;;;;;;21.40;12.87;;;17.10;99.90;;;;;;4352373;28;660255;-66
2022/08/16 02:20:46;;;;;;;20.47;13.23;;;17.20;99.90;;;;;;4348053;28;659923;-66
2022/08/16 02:23:36;;;;;;;23.70;14.53;;;17.20;99.90;;;;;;4347408;28;660228;-66
2022/08/16 02:26:24;;;;;;;26.07;13.80;;;17.30;99.90;;;;;;4340948;28;660274;-67
2022/08/16 02:29:11;;;;;;;22.37;13.87;;;17.30;99.90;;;;;;4345682;28;659569;-67
2022/08/16 02:31:59;;;;;;;22.53;13.10;;;17.30;99.90;;;;;;4370490;28;660461;-67
2022/08/16 02:34:46;;;;;;;21.17;12.80;;;17.30;99.90;;;;;;4368038;28;660210;-67
2022/08/16 02:37:33;;;;;;;20.70;13.77;;;17.20;99.90;;;;;;4378673;28;660303;-66
2022/08/16 02:40:21;;;;;;;26.43;13.83;;;17.10;99.90;;;;;;4360450;28;660525;-67
2022/08/16 02:43:08;;;;;;;24.23;13.80;;;17.20;99.90;;;;;;4389920;28;660291;-67
2022/08/16 02:45:58;;;;;;;24.30;13.73;;;17.20;99.90;;;;;;4353620;28;660070;-67
2022/08/16 02:48:49;;;;;;;19.20;13.53;;;17.20;99.90;;;;;;4369124;28;659384;-67
2022/08/16 02:51:37;;;;;;;20.93;13.73;;;17.10;99.90;;;;;;4364397;28;659746;-67
2022/08/16 02:54:26;;;;;;;23.70;13.00;;;17.10;99.90;;;;;;4380471;28;659805;-67
2022/08/16 02:57:14;;;;;;;19.93;13.03;;;17.00;99.90;;;;;;4349356;28;660447;-67
2022/08/16 03:00:04;;;;;;;18.87;13.60;;;16.90;99.90;;;;;;4356690;28;660995;-67
2022/08/16 03:02:54;;;;;;;20.67;12.63;;;16.90;99.90;;;;;;4363484;28;661202;-67
2022/08/16 03:05:43;;;;;;;19.23;12.77;;;16.90;99.90;;;;;;4348681;28;660225;-67
2022/08/16 03:08:30;;;;;;;22.97;12.10;;;16.90;99.90;;;;;;4362696;28;660256;-67
2022/08/16 03:11:17;;;;;;;19.97;12.20;;;16.80;99.90;;;;;;4368502;28;660173;-67
2022/08/16 03:14:05;;;;;;;24.77;13.10;;;16.80;99.90;;;;;;4373690;28;661091;-67
2022/08/16 03:16:53;;;;;;;19.60;12.87;;;16.80;99.90;;;;;;4380555;28;659496;-67
2022/08/16 03:19:40;;;;;;;26.33;14.67;;;16.80;99.90;;;;;;4365174;28;660696;-68
2022/08/16 03:22:32;;;;;;;103.15;13.50;;;16.90;99.90;;;;;;4371696;28;660520;-67
2022/08/16 03:25:22;;;;;;;19.20;12.48;;;17.00;99.90;;;;;;4348418;28;661052;-67
2022/08/16 03:28:11;;;;;;;21.63;12.67;;;16.90;99.90;;;;;;4364185;28;660340;-68
2022/08/16 03:31:01;;;;;;;19.77;12.03;;;16.90;99.90;;;;;;4343207;28;659922;-67
2022/08/16 03:33:51;;;;;;;23.13;12.87;;;16.80;99.90;;;;;;4324619;28;660383;-68
2022/08/16 03:36:38;;;;;;;25.77;13.30;;;16.80;99.90;;;;;;4346227;28;659957;-67
2022/08/16 03:39:29;;;;;;;21.80;13.77;;;16.70;99.90;;;;;;4352964;28;659454;-68
2022/08/16 03:42:16;;;;;;;19.90;12.97;;;16.70;99.90;;;;;;4348277;28;659849;-67
2022/08/16 03:45:04;;;;;;;28.70;13.27;;;16.80;99.90;;;;;;4377361;28;660349;-67
2022/08/16 03:47:51;;;;;;;25.60;13.50;;;16.80;99.90;;;;;;4352304;28;660310;-67
2022/08/16 03:50:38;;;;;;;18.30;13.00;;;16.80;99.90;;;;;;4369709;28;659796;-68
2022/08/16 03:53:26;;;;;;;18.30;12.70;;;16.70;99.90;;;;;;4348785;28;659742;-67
2022/08/16 03:56:17;;;;;;;19.73;11.53;;;16.70;99.90;;;;;;4383708;28;659778;-67
2022/08/16 03:59:06;;;;;;;22.10;13.47;;;16.60;99.90;;;;;;4355241;28;659838;-68
2022/08/16 04:01:53;;;;;;;19.07;12.40;;;16.60;99.90;;;;;;4353787;28;660388;-68
2022/08/16 04:04:40;;;;;;;19.47;12.60;;;16.60;99.90;;;;;;4347750;28;659736;-67
2022/08/16 04:07:27;;;;;;;21.10;13.53;;;16.50;99.90;;;;;;4376174;28;660579;-67
2022/08/16 04:10:15;;;;;;;20.20;13.53;;;16.60;99.90;;;;;;4367564;28;659592;-67
2022/08/16 04:13:03;;;;;;;24.17;15.63;;;16.60;99.90;;;;;;4357978;28;660758;-68
2022/08/16 04:15:51;;;;;;;24.20;14.37;;;16.60;99.90;;;;;;4355486;28;660593;-67
2022/08/16 04:18:41;;;;;;;26.20;15.20;;;16.60;99.90;;;;;;4374173;28;660714;-68
2022/08/16 04:21:28;;;;;;;23.43;13.80;;;16.70;99.90;;;;;;4345820;28;660359;-67
2022/08/16 04:24:15;;;;;;;21.73;13.90;;;16.50;99.90;;;;;;4353356;28;659198;-67
2022/08/16 04:27:03;;;;;;;23.20;13.40;;;16.40;99.90;;;;;;4384068;28;660563;-68
2022/08/16 04:29:51;;;;;;;24.90;13.73;;;16.40;99.90;;;;;;4367454;28;660135;-68
2022/08/16 04:32:39;;;;;;;18.93;12.83;;;16.40;99.90;;;;;;4371520;28;659679;-68
2022/08/16 04:35:26;;;;;;;22.20;14.67;;;16.50;99.90;;;;;;4351642;28;659627;-67
2022/08/16 04:38:14;;;;;;;23.67;14.17;;;16.60;99.90;;;;;;4369970;28;660627;-68
2022/08/16 04:41:01;;;;;;;22.67;13.57;;;16.70;99.90;;;;;;4361332;28;659557;-68
2022/08/16 04:43:50;;;;;;;23.70;14.20;;;16.80;99.90;;;;;;4386934;28;660575;-67
2022/08/16 04:46:39;;;;;;;20.37;13.60;;;16.80;99.90;;;;;;4349620;28;661109;-68
2022/08/16 04:49:26;;;;;;;23.10;14.00;;;17.00;99.90;;;;;;4353149;28;659954;-68
2022/08/16 04:52:13;;;;;;;20.80;13.90;;;17.10;99.90;;;;;;4376714;28;659555;-68
2022/08/16 04:55:01;;;;;;;24.83;14.13;;;17.20;99.90;;;;;;4357387;28;659557;-68
2022/08/16 04:57:49;;;;;;;21.13;15.10;;;17.30;99.90;;;;;;4382523;28;659481;-68
2022/08/16 05:00:36;;;;;;;25.93;17.43;;;17.40;99.90;;;;;;4358209;28;659832;-68
2022/08/16 05:03:25;;;;;;;27.73;17.27;;;17.60;99.90;;;;;;4366592;28;660575;-68
2022/08/16 05:06:12;;;;;;;28.17;15.97;;;17.80;99.90;;;;;;4355674;28;660906;-68
2022/08/16 05:08:59;;;;;;;25.90;15.77;;;18.00;99.90;;;;;;4371734;28;659686;-68
2022/08/16 05:11:46;;;;;;;21.17;15.03;;;18.10;99.90;;;;;;4362782;28;659929;-68
2022/08/16 05:14:33;;;;;;;19.87;15.23;;;18.20;99.90;;;;;;4373447;28;660357;-68
2022/08/16 05:17:20;;;;;;;20.60;14.87;;;18.40;99.90;;;;;;4349033;28;659851;-68
2022/08/16 05:20:10;;;;;;;24.87;16.13;;;18.50;99.90;;;;;;4377323;28;660938;-68
2022/08/16 05:22:57;;;;;;;23.80;15.40;;;18.60;99.90;;;;;;4345532;28;660963;-68
2022/08/16 05:25:44;;;;;;;21.60;15.70;;;18.70;99.90;;;;;;4379502;28;660398;-68
2022/08/16 05:28:31;;;;;;;22.40;15.10;;;18.90;99.90;;;;;;4354370;28;659884;-68
2022/08/16 05:31:18;;;;;;;22.50;16.43;;;19.10;99.90;;;;;;4372991;28;661447;-68
2022/08/16 05:34:05;;;;;;;26.27;15.07;;;19.20;99.90;;;;;;4362122;28;659779;-68
2022/08/16 05:36:56;;;;;;;28.87;14.37;;;19.40;99.90;;;;;;4375621;28;660632;-68
2022/08/16 05:39:43;;;;;;;22.83;14.13;;;19.60;99.90;;;;;;4355272;28;660760;-68
2022/08/16 05:42:30;;;;;;;27.37;15.97;;;19.80;99.90;;;;;;4364133;28;659791;-68
2022/08/16 05:45:17;;;;;;;30.33;17.47;;;19.80;99.90;;;;;;4372406;28;660120;-68
2022/08/16 05:48:05;;;;;;;26.87;18.03;;;20.00;99.90;;;;;;4367373;28;659744;-67
2022/08/16 05:50:52;;;;;;;31.93;19.50;;;20.00;99.90;;;;;;4376522;28;660826;-68
2022/08/16 05:53:41;;;;;;;31.90;20.70;;;19.90;99.90;;;;;;4375569;28;660057;-68
2022/08/16 05:56:28;;;;;;;34.07;21.67;;;19.90;99.90;;;;;;4365844;28;659404;-68
2022/08/16 05:59:17;;;;;;;35.07;22.63;;;19.70;99.90;;;;;;4352474;28;659922;-68
2022/08/16 06:02:04;;;;;;;36.33;21.03;;;19.80;99.90;;;;;;4382302;28;659282;-68
2022/08/16 06:04:51;;;;;;;35.23;21.00;;;20.10;99.90;;;;;;4352724;28;660069;-68
2022/08/16 06:07:38;;;;;;;30.80;19.55;;;20.20;99.90;;;;;;4374143;28;660277;-68
2022/08/16 06:10:27;;;;;;;31.83;20.10;;;20.40;99.90;;;;;;4333737;28;659967;-68
2022/08/16 06:13:14;;;;;;;28.93;19.17;;;20.70;99.90;;;;;;4373355;28;659649;-68
2022/08/16 06:16:01;;;;;;;36.43;20.33;;;20.90;99.90;;;;;;4354223;28;660225;-68
2022/08/16 06:18:48;;;;;;;31.17;19.13;;;20.90;99.90;;;;;;4368125;28;660680;-68
2022/08/16 06:21:35;;;;;;;32.63;18.97;;;21.10;99.90;;;;;;4337207;28;659765;-68
2022/08/16 06:24:22;;;;;;;30.37;18.80;;;21.40;99.90;;;;;;4354019;28;659307;-67
2022/08/16 06:27:11;;;;;;;27.13;19.10;;;21.40;99.90;;;;;;4364258;28;659906;-68
2022/08/16 06:29:58;;;;;;;31.23;18.97;;;21.50;99.90;;;;;;4334878;28;659926;-68
2022/08/16 06:32:45;;;;;;;30.13;20.73;;;21.50;99.90;;;;;;4347416;28;659623;-67
2022/08/16 06:35:32;;;;;;;31.03;20.80;;;21.50;99.90;;;;;;4367117;28;660420;-68
2022/08/16 06:38:21;;;;;;;34.90;19.97;;;21.80;99.90;;;;;;4362838;28;659797;-67
2022/08/16 06:41:08;;;;;;;29.63;18.23;;;22.00;99.90;;;;;;4352838;28;660213;-68
2022/08/16 06:43:57;;;;;;;26.87;17.73;;;22.10;99.90;;;;;;4328833;28;659869;-68
2022/08/16 06:46:44;;;;;;;31.87;16.43;;;22.10;99.90;;;;;;4361679;28;659575;-67
2022/08/16 06:49:31;;;;;;;32.03;16.50;;;22.30;99.90;;;;;;4345450;28;660203;-67
2022/08/16 06:52:18;;;;;;;24.20;13.97;;;22.60;99.90;;;;;;4377775;28;660301;-67
2022/08/16 06:55:06;;;;;;;17.43;13.47;;;22.60;99.90;;;;;;4371754;28;659963;-67
2022/08/16 06:57:54;;;;;;;24.13;14.67;;;22.60;99.90;;;;;;4364116;28;660527;-67
2022/08/16 07:00:42;;;;;;;26.87;14.80;;;22.50;99.90;;;;;;4364195;28;659526;-67
2022/08/16 07:03:29;;;;;;;20.67;13.27;;;22.70;99.90;;;;;;4370615;28;659869;-67
2022/08/16 07:06:17;;;;;;;19.37;12.60;;;23.00;99.90;;;;;;4352108;28;659904;-67
2022/08/16 07:09:05;;;;;;;16.27;11.43;;;23.20;99.90;;;;;;4378554;28;659380;-67
2022/08/16 07:11:52;;;;;;;20.70;12.00;;;23.00;99.90;;;;;;4356365;28;660715;-67
2022/08/16 07:14:39;;;;;;;15.93;11.03;;;23.20;99.90;;;;;;4372237;28;659829;-67
2022/08/16 07:17:28;;;;;;;20.90;12.43;;;23.40;99.90;;;;;;4347941;28;659474;-67
2022/08/16 07:20:16;;;;;;;21.90;13.40;;;23.40;99.90;;;;;;4367466;28;659914;-67
2022/08/16 07:23:05;;;;;;;20.37;12.07;;;23.60;99.90;;;;;;4362535;28;661054;-67
2022/08/16 07:25:53;;;;;;;18.70;13.90;;;23.60;99.90;;;;;;4358958;28;660906;-67
2022/08/16 07:28:40;;;;;;;19.17;12.97;;;23.80;99.90;;;;;;4363888;28;659530;-67
2022/08/16 07:31:27;;;;;;;21.20;13.77;;;24.20;99.90;;;;;;4363487;28;659556;-68
2022/08/16 07:34:16;;;;;;;19.43;11.87;;;24.30;99.90;;;;;;4385643;28;659712;-67
2022/08/16 07:37:04;;;;;;;22.90;10.23;;;24.40;99.90;;;;;;4330873;28;659947;-67
2022/08/16 07:39:52;;;;;;;17.40;11.67;;;24.10;99.90;;;;;;4334313;28;659957;-67
2022/08/16 07:42:39;;;;;;;21.03;11.27;;;24.40;99.90;;;;;;4367607;28;662235;-67
2022/08/16 07:45:27;;;;;;;12.93;10.10;;;24.30;99.90;;;;;;4347304;28;662098;-67
2022/08/16 07:48:14;;;;;;;14.57;10.03;;;24.50;99.90;;;;;;4364510;28;659802;-67
2022/08/16 07:51:02;;;;;;;19.63;10.50;;;24.80;99.90;;;;;;4344163;28;659084;-67
2022/08/16 07:53:50;;;;;;;20.60;10.63;;;24.90;99.90;;;;;;4360843;28;659434;-67
2022/08/16 07:56:37;;;;;;;15.33;10.60;;;25.00;99.90;;;;;;4342281;28;661208;-67
2022/08/16 07:59:24;;;;;;;18.87;11.87;;;25.10;99.90;;;;;;4362992;28;659760;-67
2022/08/16 08:02:12;;;;;;;19.07;11.00;;;24.60;99.90;;;;;;4349703;28;660681;-67
2022/08/16 08:05:00;;;;;;;16.13;10.32;;;25.00;99.90;;;;;;4364802;28;659366;-68
2022/08/16 08:07:48;;;;;;;19.50;11.35;;;25.60;99.90;;;;;;4366138;28;659620;-67
2022/08/16 08:10:36;;;;;;;19.50;10.93;;;25.80;99.90;;;;;;4345032;28;659380;-67
2022/08/16 08:13:23;;;;;;;18.05;10.48;;;25.40;99.90;;;;;;4368961;28;659406;-67
2022/08/16 08:16:11;;;;;;;19.63;10.43;;;25.30;99.90;;;;;;4349889;28;659679;-67
2022/08/16 08:18:58;;;;;;;16.45;10.50;;;25.70;99.90;;;;;;4363843;28;660385;-67
2022/08/16 08:21:46;;;;;;;14.23;9.32;;;25.50;99.90;;;;;;4345551;28;659515;-67
2022/08/16 08:24:36;;;;;;;16.05;9.35;;;25.50;99.90;;;;;;4361737;28;659142;-67
2022/08/16 08:27:23;;;;;;;14.02;9.98;;;25.20;99.90;;;;;;4341648;28;658451;-67
2022/08/16 08:30:11;;;;;;;14.02;9.50;;;25.30;99.90;;;;;;4347183;28;658763;-68
2022/08/16 08:32:58;;;;;;;13.30;9.45;;;25.30;99.90;;;;;;4362623;28;658322;-67
2022/08/16 08:35:45;;;;;;;14.70;8.65;;;25.30;99.90;;;;;;4342936;28;658709;-67
2022/08/16 08:38:33;;;;;;;15.70;9.90;;;24.80;99.90;;;;;;4367156;28;659641;-67
2022/08/16 08:41:22;;;;;;;11.55;8.88;;;24.70;99.90;;;;;;4340468;28;659075;-67
2022/08/16 08:44:10;;;;;;;13.65;9.60;;;24.80;99.90;;;;;;4362460;28;659432;-67
2022/08/16 08:46:58;;;;;;;19.13;9.20;;;25.10;99.90;;;;;;4368713;28;659240;-67
2022/08/16 08:49:45;;;;;;;20.02;9.07;;;25.10;99.90;;;;;;4341344;28;658692;-67
2022/08/16 08:52:32;;;;;;;15.13;9.30;;;25.30;99.90;;;;;;4370064;28;660085;-67
2022/08/16 08:55:21;;;;;;;14.23;9.20;;;25.60;99.90;;;;;;4365338;28;659058;-67
2022/08/16 08:58:12;;;;;;;16.48;9.77;;;25.80;99.90;;;;;;4334636;28;659351;-67
2022/08/16 09:00:59;;;;;;;17.45;10.57;;;25.50;99.90;;;;;;4336629;28;659185;-67
2022/08/16 09:03:46;;;;;;;19.92;9.48;;;25.50;99.90;;;;;;4343799;28;659560;-67
2022/08/16 09:06:33;;;;;;;17.48;9.45;;;25.90;99.90;;;;;;4369720;28;659360;-67
2022/08/16 09:09:20;;;;;;;13.30;9.75;;;26.00;99.90;;;;;;4354489;28;658970;-67
2022/08/16 09:12:08;;;;;;;16.77;9.00;;;25.90;99.90;;;;;;4371799;28;659587;-67
2022/08/16 09:14:57;;;;;;;12.75;9.52;;;26.20;99.90;;;;;;4352409;28;658806;-67
2022/08/16 09:17:44;;;;;;;18.43;10.57;;;25.90;99.90;;;;;;4369551;28;658673;-67
2022/08/16 09:20:31;;;;;;;17.50;9.77;;;26.10;99.90;;;;;;4343039;28;659747;-68
2022/08/16 09:23:18;;;;;;;14.27;9.15;;;26.20;99.90;;;;;;4360425;28;659230;-67
2022/08/16 09:26:06;;;;;;;12.70;9.38;;;26.70;99.90;;;;;;4349199;28;659274;-68
2022/08/16 09:28:53;;;;;;;14.77;9.75;;;26.40;99.90;;;;;;4367582;28;658818;-67
2022/08/16 09:31:42;;;;;;;12.00;9.68;;;26.60;99.90;;;;;;4339109;28;658423;-67
2022/08/16 09:34:29;;;;;;;16.85;9.52;;;26.40;99.90;;;;;;4362627;28;658385;-67
2022/08/16 09:37:16;;;;;;;14.75;9.82;;;26.40;99.90;;;;;;4343707;28;659072;-67
2022/08/16 09:40:04;;;;;;;17.38;10.57;;;26.30;99.90;;;;;;4370722;28;659637;-67
2022/08/16 09:42:52;;;;;;;16.93;10.17;;;27.10;99.90;;;;;;4343711;28;660323;-67
2022/08/16 09:45:41;;;;;;;10.77;8.63;;;26.70;99.90;;;;;;4363730;28;659791;-67
2022/08/16 09:48:31;;;;;;;12.60;9.05;;;26.60;99.90;;;;;;4341548;28;659874;-67
2022/08/16 09:51:18;;;;;;;14.82;9.30;;;27.50;99.90;;;;;;4330691;28;660205;-67
2022/08/16 09:54:05;;;;;;;15.40;9.35;;;28.20;99.90;;;;;;4342524;28;658265;-67
2022/08/16 09:56:52;;;;;;;18.55;9.57;;;28.50;99.90;;;;;;4364265;28;660589;-67
2022/08/16 09:59:41;;;;;;;12.52;9.15;;;28.00;99.90;;;;;;4364783;28;658417;-67
2022/08/16 10:02:28;;;;;;;14.30;9.90;;;28.10;99.90;;;;;;4361198;28;659416;-68
2022/08/16 10:05:17;;;;;;;14.93;9.25;;;28.50;99.90;;;;;;4344006;28;658893;-67
2022/08/16 10:08:04;;;;;;;14.95;8.32;;;29.50;99.90;;;;;;4365827;28;659828;-68
2022/08/16 10:13:56;;;;;;;11.68;8.93;;;30.10;99.90;;;;;;4314652;28;659509;-67
2022/08/16 10:16:44;;;;;;;11.27;6.53;;;29.80;96.00;;;;;;4364747;28;659713;-68
2022/08/16 10:19:32;;;;;;;13.43;9.13;;;30.20;96.20;;;;;;4336709;28;658923;-67
2022/08/16 10:22:20;;;;;;;13.32;8.65;;;30.00;97.40;;;;;;4357622;28;658623;-67
2022/08/16 10:25:08;;;;;;;12.80;8.13;;;30.10;93.20;;;;;;4337445;28;659224;-67
2022/08/16 10:27:55;;;;;;;11.48;8.10;;;30.40;95.40;;;;;;4340670;28;658728;-67
2022/08/16 10:30:43;;;;;;;22.00;8.82;;;31.10;92.20;;;;;;4361309;28;660148;-68
2022/08/16 10:33:30;;;;;;;13.68;7.97;;;32.00;92.00;;;;;;4354574;28;659018;-68
2022/08/16 10:36:17;;;;;;;14.48;8.80;;;32.60;79.80;;;;;;4376170;28;659637;-67
2022/08/16 10:39:06;;;;;;;12.63;8.65;;;32.30;80.90;;;;;;4375350;28;659196;-67
2022/08/16 10:41:53;;;;;;;11.13;7.05;;;31.60;85.70;;;;;;4355402;28;659020;-67
2022/08/16 10:44:40;;;;;;;11.80;9.35;;;30.90;80.70;;;;;;4367466;28;658325;-67
2022/08/16 10:47:28;;;;;;;33.53;17.20;;;29.80;90.10;;;;;;4376916;28;658567;-67
2022/08/16 10:50:15;;;;;;;20.42;13.02;;;29.20;92.90;;;;;;4349790;28;659868;-67
2022/08/16 10:53:05;;;;;;;43.08;16.58;;;28.90;94.20;;;;;;4381864;28;660992;-67
2022/08/16 10:55:54;;;;;;;22.70;9.73;;;28.40;93.20;;;;;;4343507;28;659887;-66
2022/08/16 10:58:41;;;;;;;30.35;12.20;;;28.20;93.80;;;;;;4344708;28;659207;-67
2022/08/16 11:01:28;;;;;;;25.27;10.75;;;27.80;95.00;;;;;;4361670;28;660311;-66
2022/08/16 11:04:15;;;;;;;14.57;7.47;;;27.70;95.40;;;;;;4348329;28;659990;-67
2022/08/16 11:07:03;;;;;;;8.37;6.40;;;27.40;94.70;;;;;;4361671;28;659184;-67
2022/08/16 11:09:50;;;;;;;21.25;10.20;;;27.10;95.90;;;;;;4341077;28;657830;-66
2022/08/16 11:12:39;;;;;;;17.80;7.75;;;27.00;95.20;;;;;;4360177;28;661553;-66
2022/08/16 11:15:26;;;;;;;8.20;5.85;;;26.80;95.30;;;;;;4339474;28;659062;-66
2022/08/16 11:18:13;;;;;;;8.45;5.32;;;27.00;97.70;;;;;;4365657;28;658740;-66
2022/08/16 11:21:00;;;;;;;14.60;5.85;;;26.80;96.50;;;;;;4348514;28;657555;-67
2022/08/16 11:23:47;;;;;;;9.13;5.70;;;26.60;97.30;;;;;;4362373;28;660091;-67
2022/08/16 11:26:35;;;;;;;9.80;5.78;;;26.60;96.30;;;;;;4364512;28;658401;-67
2022/08/16 11:29:24;;;;;;;7.35;5.32;;;26.40;96.90;;;;;;4371974;28;658692;-66
2022/08/16 11:32:11;;;;;;;7.40;5.28;;;26.50;98.80;;;;;;4350390;28;657315;-66
2022/08/16 11:34:58;;;;;;;9.70;5.32;;;26.10;99.60;;;;;;4375879;28;657997;-66
2022/08/16 11:37:47;;;;;;;7.95;4.80;;;26.10;99.80;;;;;;4355332;28;657891;-66
2022/08/16 11:40:36;;;;;;;7.78;5.55;;;26.20;99.90;;;;;;4370641;28;658683;-66
2022/08/16 11:43:24;;;;;;;10.15;5.53;;;26.30;99.90;;;;;;4351532;28;658884;-66
2022/08/16 11:46:14;;;;;;;11.65;5.47;;;26.10;99.90;;;;;;4346323;28;658893;-66
2022/08/16 11:49:02;;;;;;;6.67;5.03;;;26.10;99.90;;;;;;4363491;28;658766;-66
2022/08/16 11:51:49;;;;;;;9.40;5.30;;;26.10;99.90;;;;;;4376010;28;657439;-66
2022/08/16 11:54:36;;;;;;;7.60;5.10;;;26.10;99.90;;;;;;4358123;28;657684;-66
2022/08/16 11:57:23;;;;;;;7.25;5.72;;;26.40;99.90;;;;;;4373230;28;659111;-66
2022/08/16 12:00:12;;;;;;;8.05;5.50;;;26.60;99.90;;;;;;4357894;28;658221;-66
2022/08/16 12:03:01;;;;;;;9.55;6.10;;;26.60;99.90;;;;;;4378436;28;658199;-66
2022/08/16 12:05:48;;;;;;;11.23;6.53;;;26.60;99.90;;;;;;4355790;28;658155;-66
2022/08/16 12:08:35;;;;;;;13.10;7.53;;;26.70;99.90;;;;;;4368582;28;658844;-67
2022/08/16 12:11:22;;;;;;;13.77;8.68;;;26.70;99.90;;;;;;4385411;28;660007;-66
2022/08/16 12:14:09;;;;;;;13.60;9.07;;;26.90;99.90;;;;;;4374710;28;658862;-66
2022/08/16 12:16:56;;;;;;;17.65;9.85;;;26.80;99.90;;;;;;4357137;28;658879;-67
2022/08/16 12:19:45;;;;;;;17.80;9.52;;;27.00;99.90;;;;;;4374923;28;659330;-65
2022/08/16 12:22:32;;;;;;;16.30;9.45;;;27.10;99.90;;;;;;4362149;28;658999;-66
2022/08/16 12:25:20;;;;;;;14.23;9.43;;;27.30;99.90;;;;;;4367992;28;658962;-66
2022/08/16 12:28:08;;;;;;;16.33;9.38;;;27.40;99.90;;;;;;4363494;28;660180;-66
2022/08/16 12:30:55;;;;;;;18.17;9.98;;;27.50;99.90;;;;;;4352822;28;658686;-66
2022/08/16 12:33:42;;;;;;;18.90;10.13;;;27.60;99.90;;;;;;4377243;28;659305;-66
2022/08/16 12:36:33;;;;;;;18.00;9.80;;;27.60;99.90;;;;;;4375258;28;659588;-66
2022/08/16 12:39:20;;;;;;;15.48;9.50;;;27.70;99.90;;;;;;4352762;28;658455;-66
2022/08/16 12:42:08;;;;;;;13.43;9.05;;;27.70;99.90;;;;;;4381341;28;659259;-66
2022/08/16 12:44:55;;;;;;;19.30;9.73;;;27.70;99.90;;;;;;4362475;28;659075;-66
2022/08/16 12:50:47;;;;;;;16.13;9.38;;;27.60;99.90;;;;;;4333905;28;659548;-66
2022/08/16 12:53:37;;;;;;;17.83;9.02;;;27.80;99.90;;;;;;4370570;28;658812;-66
2022/08/16 12:56:25;;;;;;;14.18;8.48;;;27.80;99.90;;;;;;4349359;28;659106;-66
2022/08/16 12:59:14;;;;;;;16.27;9.53;;;27.60;99.90;;;;;;4353375;28;659896;-66
2022/08/16 13:02:01;;;;;;;14.90;9.97;;;27.60;99.90;;;;;;4358409;28;658228;-66
2022/08/16 13:04:48;;;;;;;12.48;9.13;;;27.50;99.90;;;;;;4383648;28;659496;-65
2022/08/16 13:07:36;;;;;;;13.00;8.43;;;27.30;99.90;;;;;;4356384;28;658728;-66
2022/08/16 13:10:27;;;;;;;14.90;9.20;;;27.10;99.90;;;;;;4373197;28;660004;-66
2022/08/16 13:13:23;;;;;;;14.88;9.30;;;27.10;99.90;;;;;;4356042;28;659764;-66
2022/08/16 13:16:10;;;;;;;11.70;9.00;;;27.10;99.90;;;;;;4341400;28;658615;-66
2022/08/16 13:18:57;;;;;;;14.55;9.55;;;27.00;99.90;;;;;;4385139;28;659864;-65
2022/08/16 13:21:45;;;;;;;15.70;8.98;;;26.80;99.90;;;;;;4381694;28;658853;-66
2022/08/16 13:24:32;;;;;;;15.15;9.82;;;26.70;99.90;;;;;;4381321;28;658803;-65
2022/08/16 13:27:21;;;;;;;13.40;9.10;;;26.60;99.90;;;;;;4370158;28;659518;-65
2022/08/16 13:30:09;;;;;;;15.00;9.02;;;26.20;99.90;;;;;;4358840;28;659240;-66
2022/08/16 13:32:56;;;;;;;17.17;9.73;;;26.30;99.90;;;;;;4348404;28;659030;-66
2022/08/16 13:35:45;;;;;;;16.85;9.45;;;26.20;99.90;;;;;;4377795;28;658902;-66
2022/08/16 13:38:32;;;;;;;18.90;9.40;;;26.30;99.90;;;;;;4354823;28;660048;-66
2022/08/16 13:41:19;;;;;;;17.75;10.50;;;26.30;99.90;;;;;;4375759;28;659619;-66
2022/08/16 13:44:08;;;;;;;14.73;9.87;;;26.00;99.90;;;;;;4357384;28;659957;-66
2022/08/16 13:46:56;;;;;;;13.75;9.18;;;26.00;99.90;;;;;;4372513;28;658664;-66
2022/08/16 13:49:45;;;;;;;15.95;9.75;;;26.10;99.90;;;;;;4373950;28;659338;-66
2022/08/16 13:52:33;;;;;;;13.68;9.32;;;25.70;99.90;;;;;;4349588;28;660651;-66
2022/08/16 13:55:21;;;;;;;19.00;10.20;;;25.90;99.90;;;;;;4364809;28;660049;-66
2022/08/16 13:58:08;;;;;;;16.10;9.27;;;26.10;99.90;;;;;;4370895;28;661122;-66
2022/08/16 14:00:57;;;;;;;17.75;9.73;;;26.30;99.90;;;;;;4346441;28;658613;-66
2022/08/16 14:03:44;;;;;;;18.67;9.55;;;26.40;99.90;;;;;;4368238;28;659229;-66
2022/08/16 14:06:31;;;;;;;14.63;10.02;;;26.30;99.90;;;;;;4337547;28;658661;-66
2022/08/16 14:09:19;;;;;;;19.35;10.77;;;26.40;99.90;;;;;;4364792;28;660690;-66